Time;durP1;ratioP1;P1;durP2;ratioP2;P2;SDS_P1;SDS_P2;PMS_P1;PMS_P2;Temp;Humidity;BMP_temperature;BMP_pressure;BME280_temperature;BME280_humidity;BME280_pressure;Samples;Min_cycle;Max_cycle;Signal;HPM_P1;HPM_P2
2022/02/14 00:02:04;;;;;;;10.23;5.17;;;11.40;1.00;;;;;;5093073;28;20201;-82
2022/02/14 00:04:31;;;;;;;13.93;5.17;;;11.50;1.00;;;;;;5092576;28;20205;-82
2022/02/14 00:07:00;;;;;;;10.60;4.53;;;11.40;1.00;;;;;;5093155;28;20673;-82
2022/02/14 00:09:27;;;;;;;14.67;5.87;;;11.30;1.00;;;;;;5093527;28;20213;-85
2022/02/14 00:11:54;;;;;;;12.57;4.90;;;11.30;1.00;;;;;;5093624;28;20206;-85
2022/02/14 00:14:22;;;;;;;9.27;4.20;;;11.40;1.00;;;;;;5093071;28;20206;-85
2022/02/14 00:16:49;;;;;;;11.20;5.53;;;11.40;1.00;;;;;;5092048;28;20623;-80
2022/02/14 00:19:16;;;;;;;8.90;4.80;;;11.30;1.00;;;;;;5092148;28;20233;-80
2022/02/14 00:21:43;;;;;;;10.77;5.43;;;11.30;1.00;;;;;;5092050;28;20279;-79
2022/02/14 00:24:11;;;;;;;12.73;5.50;;;11.40;1.00;;;;;;5091480;28;20448;-80
2022/02/14 00:26:38;;;;;;;8.60;4.50;;;11.40;1.00;;;;;;5079823;28;20197;-74
2022/02/14 00:29:06;;;;;;;10.27;5.07;;;11.30;1.00;;;;;;5091756;28;20247;-75
2022/02/14 00:31:33;;;;;;;15.52;6.05;;;11.30;1.00;;;;;;5076946;28;20259;-76
2022/02/14 00:34:00;;;;;;;8.20;4.40;;;11.30;1.00;;;;;;5071663;28;20271;-75
2022/02/14 00:36:27;;;;;;;9.47;4.27;;;11.30;1.00;;;;;;5092052;28;20213;-77
2022/02/14 00:38:54;;;;;;;12.83;4.43;;;11.30;1.00;;;;;;5091950;28;20708;-76
2022/02/14 00:41:23;;;;;;;10.17;4.40;;;11.30;1.00;;;;;;5091483;28;20206;-76
2022/02/14 00:43:50;;;;;;;8.50;4.73;;;11.30;1.00;;;;;;5091291;28;20213;-76
2022/02/14 00:46:17;;;;;;;10.27;4.73;;;11.20;1.00;;;;;;5091253;28;20575;-77
2022/02/14 00:48:45;;;;;;;13.57;4.57;;;11.20;1.00;;;;;;5091513;28;20259;-75
2022/02/14 00:51:12;;;;;;;13.53;4.77;;;11.20;1.00;;;;;;5091538;28;20202;-74
2022/02/14 00:53:39;;;;;;;9.90;4.40;;;11.20;1.00;;;;;;5091028;28;20271;-77
2022/02/14 00:56:06;;;;;;;8.10;4.30;;;11.20;1.00;;;;;;5083075;28;20248;-74
2022/02/14 00:58:34;;;;;;;15.07;5.23;;;11.20;1.00;;;;;;5086873;28;20221;-75
2022/02/14 01:01:01;;;;;;;10.07;4.40;;;11.20;1.00;;;;;;5087911;28;20226;-80
2022/02/14 01:03:28;;;;;;;8.07;3.83;;;11.10;1.00;;;;;;5071469;28;20599;-78
2022/02/14 01:05:55;;;;;;;15.10;4.60;;;11.10;1.00;;;;;;5081163;28;20216;-79
2022/02/14 01:08:22;;;;;;;16.77;5.67;;;11.20;1.00;;;;;;5091550;28;20209;-77
2022/02/14 01:10:49;;;;;;;11.43;4.20;;;11.20;1.00;;;;;;5090424;28;20577;-79
2022/02/14 01:13:16;;;;;;;9.23;4.43;;;11.20;1.00;;;;;;5091431;28;20266;-79
2022/02/14 01:15:45;;;;;;;15.57;5.77;;;11.20;1.00;;;;;;5090876;28;20198;-78
2022/02/14 01:18:12;;;;;;;12.17;4.87;;;11.20;1.00;;;;;;5091417;28;20225;-78
2022/02/14 01:20:39;;;;;;;10.43;6.10;;;11.10;1.00;;;;;;5090973;28;20198;-82
2022/02/14 01:23:06;;;;;;;20.00;7.67;;;11.00;1.00;;;;;;5091526;28;20251;-81
2022/02/14 01:25:33;;;;;;;16.83;6.13;;;10.90;1.00;;;;;;5091293;28;20201;-82
2022/02/14 01:28:00;;;;;;;16.93;6.20;;;11.00;1.00;;;;;;5091422;28;20205;-79
2022/02/14 01:30:27;;;;;;;11.67;6.60;;;11.00;1.00;;;;;;5090988;28;20217;-80
2022/02/14 01:32:58;;;;;;;15.65;6.80;;;10.80;1.00;;;;;;5091011;28;20599;-80
2022/02/14 01:35:25;;;;;;;19.60;6.80;;;10.80;1.00;;;;;;5091259;28;20668;-80
2022/02/14 01:37:52;;;;;;;11.27;7.57;;;10.70;1.00;;;;;;5089327;28;20205;-80
2022/02/14 01:40:19;;;;;;;15.57;6.97;;;10.70;1.00;;;;;;5080235;28;20673;-78
2022/02/14 01:42:46;;;;;;;18.67;8.20;;;10.70;1.00;;;;;;5090590;28;20205;-78
2022/02/14 01:45:14;;;;;;;15.03;8.07;;;10.60;1.00;;;;;;5073752;28;20206;-78
2022/02/14 01:47:42;;;;;;;17.53;7.53;;;10.50;1.00;;;;;;5073366;28;20222;-77
2022/02/14 01:50:13;;;;;;;13.17;7.80;;;10.50;1.00;;;;;;5091171;28;20282;-78
2022/02/14 01:52:40;;;;;;;10.90;6.73;;;10.50;1.00;;;;;;5090483;28;20749;-78
2022/02/14 01:55:09;;;;;;;19.03;7.17;;;10.50;1.00;;;;;;5090995;28;20205;-79
2022/02/14 01:57:37;;;;;;;18.57;7.57;;;10.60;1.00;;;;;;5090552;28;20734;-79
2022/02/14 02:00:06;;;;;;;17.07;8.10;;;10.60;1.00;;;;;;5090823;28;20233;-80
2022/02/14 02:02:33;;;;;;;15.67;8.30;;;10.60;1.00;;;;;;5090876;28;20205;-80
2022/02/14 02:05:01;;;;;;;17.67;7.93;;;10.50;1.00;;;;;;5090837;28;20198;-80
2022/02/14 02:07:30;;;;;;;18.03;7.70;;;10.40;1.00;;;;;;5091425;28;20205;-81
2022/02/14 02:09:57;;;;;;;14.30;8.03;;;10.30;1.00;;;;;;5091371;28;20217;-83
2022/02/14 02:12:23;;;;;;;17.87;9.10;;;10.20;1.00;;;;;;5091435;28;20228;-80
2022/02/14 02:14:51;;;;;;;15.53;7.67;;;10.30;1.00;;;;;;5090258;28;20584;-82
2022/02/14 02:17:18;;;;;;;13.30;8.37;;;10.40;1.00;;;;;;5090757;28;20206;-83
2022/02/14 02:19:45;;;;;;;18.20;9.87;;;10.40;1.00;;;;;;5090405;28;20225;-80
2022/02/14 02:22:12;;;;;;;12.23;7.90;;;10.30;1.00;;;;;;5092567;28;20259;-79
2022/02/14 02:24:46;;;;;;;18.70;7.77;;;10.30;1.00;;;;;;5094374;28;20213;-80
2022/02/14 02:27:14;;;;;;;14.77;9.50;;;10.30;1.00;;;;;;5094502;28;20201;-79
2022/02/14 02:29:41;;;;;;;11.90;7.83;;;10.30;1.00;;;;;;5092637;28;20627;-80
2022/02/14 02:32:09;;;;;;;19.97;9.03;;;10.20;1.00;;;;;;5094375;28;20205;-79
2022/02/14 02:34:38;;;;;;;22.90;10.50;;;10.20;1.00;;;;;;5093958;28;20206;-82
2022/02/14 02:37:07;;;;;;;19.30;9.30;;;10.20;1.00;;;;;;5094404;28;20296;-82
2022/02/14 02:39:35;;;;;;;17.77;10.40;;;10.30;1.00;;;;;;5094165;28;20239;-81
2022/02/14 02:42:05;;;;;;;16.20;8.97;;;10.20;1.00;;;;;;5093607;28;20206;-81
2022/02/14 02:44:33;;;;;;;13.17;9.30;;;10.10;1.00;;;;;;5093712;28;20206;-82
2022/02/14 02:47:01;;;;;;;13.40;9.73;;;10.10;1.00;;;;;;5094151;28;20202;-80
2022/02/14 02:49:28;;;;;;;13.23;9.33;;;10.00;1.00;;;;;;5077104;28;20878;-81
2022/02/14 02:51:55;;;;;;;14.63;10.47;;;10.10;1.00;;;;;;5076540;28;20202;-79
2022/02/14 02:54:24;;;;;;;14.87;10.10;;;10.10;1.00;;;;;;5093612;28;20254;-77
2022/02/14 02:56:54;;;;;;;17.00;9.50;;;10.00;1.00;;;;;;5093288;28;20676;-78
2022/02/14 02:59:25;;;;;;;15.63;9.27;;;10.00;1.00;;;;;;5093648;28;20221;-78
2022/02/14 03:01:52;;;;;;;16.47;11.00;;;10.10;1.00;;;;;;5093779;28;20205;-78
2022/02/14 03:04:20;;;;;;;16.70;10.73;;;10.20;1.00;;;;;;5093996;28;20210;-80
2022/02/14 03:06:47;;;;;;;19.70;10.00;;;10.20;1.00;;;;;;5093172;28;20263;-83
2022/02/14 03:09:15;;;;;;;15.67;10.17;;;10.30;1.00;;;;;;5094731;28;20262;-79
2022/02/14 03:11:44;;;;;;;19.57;10.20;;;10.30;1.00;;;;;;5093058;28;20198;-79
2022/02/14 03:14:11;;;;;;;14.57;9.93;;;10.10;1.00;;;;;;5093554;28;20692;-80
2022/02/14 03:16:40;;;;;;;16.17;10.67;;;10.10;1.00;;;;;;5093477;28;20566;-79
2022/02/14 03:19:07;;;;;;;15.47;8.60;;;10.10;1.00;;;;;;5093289;28;20233;-79
2022/02/14 03:21:34;;;;;;;19.17;10.53;;;10.00;1.00;;;;;;5093137;28;20757;-79
2022/02/14 03:24:02;;;;;;;21.83;9.73;;;10.00;1.00;;;;;;5093502;28;20197;-78
2022/02/14 03:26:29;;;;;;;16.33;10.33;;;10.00;1.00;;;;;;5091926;28;20613;-77
2022/02/14 03:28:57;;;;;;;19.67;9.83;;;10.00;1.00;;;;;;5093411;28;20205;-79
2022/02/14 03:31:25;;;;;;;15.10;8.47;;;9.90;1.00;;;;;;5093520;28;20625;-79
2022/02/14 03:33:54;;;;;;;19.87;9.87;;;9.90;1.00;;;;;;5091856;28;20205;-77
2022/02/14 03:36:22;;;;;;;16.27;7.47;;;10.00;1.00;;;;;;5093141;28;20235;-79
2022/02/14 03:38:50;;;;;;;19.03;8.10;;;9.90;1.00;;;;;;5092638;28;20233;-77
2022/02/14 03:41:19;;;;;;;11.70;8.33;;;9.90;1.00;;;;;;5092992;28;20245;-78
2022/02/14 03:43:46;;;;;;;14.57;7.60;;;9.90;1.00;;;;;;5092578;28;20741;-78
2022/02/14 03:46:13;;;;;;;17.33;5.60;;;9.90;1.00;;;;;;5093065;28;20542;-78
2022/02/14 03:48:40;;;;;;;9.03;4.73;;;9.90;1.00;;;;;;5092362;28;20251;-78
2022/02/14 03:51:08;;;;;;;9.47;4.07;;;9.90;1.00;;;;;;5092805;28;20223;-78
2022/02/14 03:53:35;;;;;;;6.80;3.70;;;9.90;1.00;;;;;;5091948;28;20209;-79
2022/02/14 03:56:04;;;;;;;11.00;5.87;;;9.90;1.00;;;;;;5092327;28;20661;-78
2022/02/14 03:58:32;;;;;;;7.70;3.97;;;9.80;1.00;;;;;;5092110;28;20206;-77
2022/02/14 04:00:59;;;;;;;6.53;3.97;;;9.90;1.00;;;;;;5092795;28;20270;-77
2022/02/14 04:03:26;;;;;;;4.83;3.00;;;9.90;1.00;;;;;;5092939;28;20205;-77
2022/02/14 04:05:53;;;;;;;5.30;2.67;;;9.80;1.00;;;;;;5091939;28;20255;-76
2022/02/14 04:08:21;;;;;;;9.40;2.80;;;9.80;1.00;;;;;;5092345;28;20206;-80
2022/02/14 04:10:48;;;;;;;3.80;2.30;;;9.80;1.00;;;;;;5092402;28;20689;-80
2022/02/14 04:13:15;;;;;;;6.87;2.77;;;9.80;1.00;;;;;;5092569;28;20197;-82
2022/02/14 04:15:42;;;;;;;4.33;2.63;;;9.80;1.00;;;;;;5080383;28;20202;-79
2022/02/14 04:18:10;;;;;;;2.67;1.77;;;9.70;1.00;;;;;;5080288;28;20620;-78
2022/02/14 04:20:37;;;;;;;4.20;2.00;;;9.70;1.00;;;;;;5099763;28;20233;-81
2022/02/14 04:23:05;;;;;;;6.37;2.20;;;9.70;1.00;;;;;;5106679;28;20731;-82
2022/02/14 04:25:33;;;;;;;4.50;2.47;;;9.70;1.00;;;;;;5098125;28;20200;-84
2022/02/14 04:28:00;;;;;;;4.47;1.77;;;9.60;1.00;;;;;;5112610;28;20629;-81
2022/02/14 04:30:29;;;;;;;3.27;1.50;;;9.60;1.00;;;;;;5112778;28;20213;-81
2022/02/14 04:32:59;;;;;;;2.90;2.20;;;9.60;1.00;;;;;;5112552;28;20208;-80
2022/02/14 04:35:27;;;;;;;3.80;1.47;;;9.60;1.00;;;;;;5111534;28;20676;-79
2022/02/14 04:37:58;;;;;;;5.17;1.37;;;9.60;1.00;;;;;;5112086;28;20205;-79
2022/02/14 04:40:27;;;;;;;3.57;1.57;;;9.60;1.00;;;;;;5111683;28;20659;-79
2022/02/14 04:42:56;;;;;;;4.47;1.20;;;9.60;1.00;;;;;;5112275;28;20207;-79
2022/02/14 04:45:23;;;;;;;3.73;1.30;;;9.60;1.00;;;;;;5111885;28;20201;-77
2022/02/14 04:47:51;;;;;;;5.17;2.40;;;9.50;1.00;;;;;;5111687;28;20291;-79
2022/02/14 04:50:18;;;;;;;4.33;1.17;;;9.50;1.00;;;;;;5111856;28;20207;-82
2022/02/14 04:52:45;;;;;;;0.97;0.63;;;9.40;1.00;;;;;;5110881;28;20812;-79
2022/02/14 04:55:12;;;;;;;6.07;2.23;;;9.40;1.00;;;;;;5111588;28;20676;-79
2022/02/14 04:57:39;;;;;;;2.20;1.00;;;9.40;1.00;;;;;;5111160;28;20205;-79
2022/02/14 05:00:11;;;;;;;3.37;1.20;;;9.30;1.00;;;;;;5111569;28;20232;-78
2022/02/14 05:02:38;;;;;;;5.33;1.27;;;9.30;1.00;;;;;;5110244;28;20257;-79
2022/02/14 05:05:05;;;;;;;2.03;0.90;;;9.30;1.00;;;;;;5111180;28;20249;-78
2022/02/14 05:07:32;;;;;;;7.47;1.33;;;9.30;1.00;;;;;;5111049;28;20204;-78
2022/02/14 05:09:59;;;;;;;3.00;0.93;;;9.30;1.00;;;;;;5111269;28;20303;-77
2022/02/14 05:12:26;;;;;;;3.60;0.77;;;9.40;1.00;;;;;;5107973;28;20209;-77
2022/02/14 05:14:54;;;;;;;2.67;0.80;;;9.30;1.00;;;;;;5110877;28;20201;-78
2022/02/14 05:17:22;;;;;;;3.20;0.93;;;9.40;1.00;;;;;;5103999;28;20258;-75
2022/02/14 05:19:49;;;;;;;1.63;0.70;;;9.30;1.00;;;;;;5105788;28;20305;-79
2022/02/14 05:22:16;;;;;;;3.77;0.80;;;9.20;1.00;;;;;;5111122;28;20201;-78
2022/02/14 05:24:43;;;;;;;3.97;0.83;;;9.20;1.00;;;;;;5110892;28;20205;-80
2022/02/14 05:27:10;;;;;;;2.47;0.60;;;9.10;1.00;;;;;;5103711;28;20258;-80
2022/02/14 05:29:37;;;;;;;1.70;0.40;;;9.00;1.00;;;;;;5110922;28;20288;-79
2022/02/14 05:32:04;;;;;;;0.43;0.43;;;8.90;1.00;;;;;;5111467;28;20201;-78
2022/02/14 05:34:33;;;;;;;4.70;0.40;;;8.90;1.00;;;;;;5110836;28;20204;-76
2022/02/14 05:37:00;;;;;;;0.87;0.50;;;8.80;1.00;;;;;;5110843;28;20212;-79
2022/02/14 05:39:27;;;;;;;2.97;0.43;;;8.80;1.00;;;;;;5111285;28;20224;-80
2022/02/14 05:41:54;;;;;;;0.67;0.30;;;8.80;1.00;;;;;;5111507;28;20208;-77
2022/02/14 05:44:22;;;;;;;0.97;0.90;;;8.80;1.00;;;;;;5111064;28;20669;-80
2022/02/14 05:46:49;;;;;;;1.13;0.30;;;8.70;1.00;;;;;;5110456;28;21197;-78
2022/02/14 05:49:16;;;;;;;0.67;0.43;;;8.70;1.00;;;;;;5111280;28;20208;-80
2022/02/14 05:51:44;;;;;;;1.83;0.47;;;8.70;1.00;;;;;;5110366;28;20249;-79
2022/02/14 05:54:11;;;;;;;2.40;0.70;;;8.60;1.00;;;;;;5108473;28;20212;-78
2022/02/14 05:56:38;;;;;;;2.57;0.70;;;8.60;1.00;;;;;;5102040;28;20205;-78
2022/02/14 05:59:05;;;;;;;2.00;0.50;;;8.60;1.00;;;;;;5115327;28;20261;-79
2022/02/14 06:01:32;;;;;;;2.30;0.80;;;8.70;1.00;;;;;;5114348;28;20291;-79
2022/02/14 06:03:59;;;;;;;1.00;0.40;;;8.70;1.00;;;;;;5112518;28;20264;-75
2022/02/14 06:06:26;;;;;;;1.20;0.60;;;8.70;1.00;;;;;;5110483;28;20250;-78
2022/02/14 06:08:54;;;;;;;1.13;0.80;;;8.70;1.00;;;;;;5114577;28;20209;-80
2022/02/14 06:11:22;;;;;;;4.40;1.00;;;8.80;1.00;;;;;;5113263;28;20209;-79
2022/02/14 06:13:49;;;;;;;2.80;0.57;;;8.60;1.00;;;;;;5114602;28;21016;-79
2022/02/14 06:16:16;;;;;;;2.30;0.60;;;8.70;1.00;;;;;;5115073;28;20250;-80
2022/02/14 06:18:43;;;;;;;2.40;0.70;;;8.70;1.00;;;;;;5114141;28;20258;-81
2022/02/14 06:21:10;;;;;;;0.97;0.70;;;8.70;1.00;;;;;;5114855;28;20294;-82
2022/02/14 06:23:37;;;;;;;1.53;0.87;;;8.70;1.00;;;;;;5114514;28;20208;-82
2022/02/14 06:26:06;;;;;;;2.50;1.00;;;8.60;1.00;;;;;;5115298;28;20646;-83
2022/02/14 06:28:38;;;;;;;1.57;0.87;;;8.60;1.00;;;;;;5114362;28;20209;-83
2022/02/14 06:31:05;;;;;;;2.80;1.53;;;8.60;1.00;;;;;;5114719;28;20209;-75
2022/02/14 06:33:32;;;;;;;2.40;0.73;;;8.50;1.00;;;;;;5112727;28;20211;-81
2022/02/14 06:36:00;;;;;;;3.27;0.60;;;8.50;1.00;;;;;;5097761;28;20611;-77
2022/02/14 06:38:27;;;;;;;4.10;1.43;;;8.50;1.00;;;;;;5101728;28;20205;-82
2022/02/14 06:40:55;;;;;;;1.77;0.87;;;8.40;1.00;;;;;;5109490;28;20225;-82
2022/02/14 06:43:23;;;;;;;1.13;0.73;;;8.40;1.00;;;;;;5113651;28;20205;-83
2022/02/14 06:45:50;;;;;;;2.17;1.30;;;8.50;1.00;;;;;;5114127;28;20269;-80
2022/02/14 06:48:18;;;;;;;1.20;1.10;;;8.40;1.00;;;;;;5114260;28;20205;-83
2022/02/14 06:50:45;;;;;;;1.07;0.60;;;8.40;1.00;;;;;;5113731;28;20208;-82
2022/02/14 06:53:12;;;;;;;2.93;0.77;;;8.30;1.00;;;;;;5111766;28;20205;-76
2022/02/14 06:55:39;;;;;;;1.27;0.60;;;8.40;1.00;;;;;;5113917;28;20251;-74
2022/02/14 06:58:06;;;;;;;3.97;0.77;;;8.40;1.00;;;;;;5114129;28;20201;-84
2022/02/14 07:00:35;;;;;;;0.77;0.50;;;8.30;1.00;;;;;;5105957;28;20233;-77
2022/02/14 07:03:02;;;;;;;1.47;0.60;;;8.20;1.00;;;;;;5100779;28;20205;-83
2022/02/14 07:05:29;;;;;;;3.80;0.70;;;8.30;1.00;;;;;;5114559;28;20250;-75
2022/02/14 07:07:56;;;;;;;2.07;1.20;;;8.40;1.00;;;;;;5113298;28;20201;-83
2022/02/14 07:10:23;;;;;;;3.70;0.53;;;8.30;1.00;;;;;;5114100;28;20627;-83
2022/02/14 07:12:50;;;;;;;2.33;0.50;;;8.20;1.00;;;;;;5113468;28;20213;-82
2022/02/14 07:15:18;;;;;;;2.10;0.63;;;8.20;1.00;;;;;;5072410;28;20198;-78
2022/02/14 07:17:48;;;;;;;2.33;0.50;;;8.20;1.00;;;;;;5092782;28;20198;-81
2022/02/14 07:20:15;;;;;;;5.03;0.73;;;8.10;1.00;;;;;;5093566;28;20694;-82
2022/02/14 07:22:42;;;;;;;2.67;0.60;;;8.10;1.00;;;;;;5093600;28;20198;-83
2022/02/14 07:25:10;;;;;;;1.53;0.70;;;8.20;1.00;;;;;;5093135;28;20665;-79
2022/02/14 07:27:39;;;;;;;2.53;1.30;;;8.20;1.00;;;;;;5092830;28;20246;-74
2022/02/14 07:30:08;;;;;;;1.63;1.00;;;8.40;1.00;;;;;;5092828;28;20202;-76
2022/02/14 07:32:36;;;;;;;2.10;1.67;;;8.50;1.00;;;;;;5092521;28;20198;-77
2022/02/14 07:35:05;;;;;;;1.63;0.70;;;8.30;1.00;;;;;;5093196;28;20233;-78
2022/02/14 07:37:32;;;;;;;1.83;0.90;;;8.30;1.00;;;;;;5092534;28;20244;-78
2022/02/14 07:40:00;;;;;;;1.30;0.73;;;8.30;1.00;;;;;;5092894;28;20276;-78
2022/02/14 07:42:28;;;;;;;3.50;0.90;;;8.20;1.00;;;;;;5092963;28;20202;-79
2022/02/14 07:44:55;;;;;;;2.90;0.90;;;8.20;1.00;;;;;;5093210;28;20656;-83
2022/02/14 07:47:23;;;;;;;3.43;1.43;;;8.20;1.00;;;;;;5093377;28;20227;-81
2022/02/14 07:49:50;;;;;;;2.57;0.70;;;8.20;1.00;;;;;;5081132;28;20288;-80
2022/02/14 07:52:18;;;;;;;1.60;1.20;;;8.20;1.00;;;;;;5088097;28;20623;-76
2022/02/14 07:54:45;;;;;;;1.47;1.23;;;8.20;1.00;;;;;;5081462;28;20206;-81
2022/02/14 07:57:13;;;;;;;1.60;0.77;;;8.10;1.00;;;;;;5072395;28;20236;-78
2022/02/14 07:59:40;;;;;;;2.63;1.00;;;8.10;1.00;;;;;;5071842;28;20202;-81
2022/02/14 08:02:07;;;;;;;4.10;0.97;;;8.10;1.00;;;;;;5090044;28;20266;-80
2022/02/14 08:04:35;;;;;;;2.93;1.10;;;8.10;1.00;;;;;;5092171;28;20213;-81
2022/02/14 08:07:04;;;;;;;2.27;0.70;;;8.10;1.00;;;;;;5092229;28;20630;-79
2022/02/14 08:09:33;;;;;;;2.53;0.87;;;8.10;1.00;;;;;;5091940;28;20658;-80
2022/02/14 08:12:01;;;;;;;1.27;1.13;;;8.10;1.00;;;;;;5091853;28;20213;-77
2022/02/14 08:14:27;;;;;;;1.33;0.60;;;8.10;1.00;;;;;;5093516;28;20275;-80
2022/02/14 08:16:54;;;;;;;1.00;0.70;;;8.00;1.00;;;;;;5088390;28;20258;-75
2022/02/14 08:19:21;;;;;;;1.23;0.60;;;8.00;1.00;;;;;;5092461;28;20198;-84
2022/02/14 08:21:48;;;;;;;1.67;1.20;;;8.00;1.00;;;;;;5093371;28;20587;-72
2022/02/14 08:24:15;;;;;;;1.47;1.23;;;8.00;1.00;;;;;;5090559;28;20206;-73
2022/02/14 08:26:44;;;;;;;3.00;1.50;;;8.00;1.00;;;;;;5090875;28;20197;-70
2022/02/14 08:29:11;;;;;;;2.03;0.80;;;8.00;1.00;;;;;;5101273;28;20206;-71
2022/02/14 08:31:38;;;;;;;3.40;1.10;;;8.00;1.00;;;;;;5090969;28;20206;-71
2022/02/14 08:34:05;;;;;;;1.47;0.93;;;8.00;1.00;;;;;;5095514;28;20209;-72
2022/02/14 08:36:32;;;;;;;1.53;0.80;;;7.90;1.00;;;;;;5111137;28;20257;-71
2022/02/14 08:39:00;;;;;;;1.67;0.80;;;8.00;1.00;;;;;;5104441;28;20251;-71
2022/02/14 08:41:27;;;;;;;2.10;0.60;;;8.00;1.00;;;;;;5091640;28;20310;-71
2022/02/14 08:43:55;;;;;;;3.30;0.93;;;8.10;1.00;;;;;;5104459;28;20668;-71
2022/02/14 08:46:24;;;;;;;4.13;1.63;;;8.30;1.00;;;;;;5101051;28;20216;-71
2022/02/14 08:48:52;;;;;;;1.93;0.93;;;8.30;1.00;;;;;;5111006;28;20234;-71
2022/02/14 08:51:20;;;;;;;5.27;0.90;;;8.40;1.00;;;;;;5098717;28;20209;-72
2022/02/14 08:53:47;;;;;;;4.37;1.30;;;8.60;1.00;;;;;;5107410;28;20209;-72
2022/02/14 08:56:14;;;;;;;3.70;1.37;;;8.60;1.00;;;;;;5105987;28;20250;-72
2022/02/14 08:58:42;;;;;;;2.60;1.00;;;8.60;1.00;;;;;;5109802;28;20211;-72
2022/02/14 09:01:12;;;;;;;3.30;1.37;;;8.50;1.00;;;;;;5095976;28;20229;-72
2022/02/14 09:03:40;;;;;;;2.80;0.97;;;8.50;1.00;;;;;;5099079;28;20561;-84
2022/02/14 09:06:07;;;;;;;1.97;1.20;;;8.50;1.00;;;;;;5089261;28;20202;-72
2022/02/14 09:08:35;;;;;;;1.10;1.00;;;8.80;1.00;;;;;;5103283;28;20205;-72
2022/02/14 09:11:03;;;;;;;2.20;0.87;;;9.10;1.00;;;;;;5107854;28;20633;-72
2022/02/14 09:13:31;;;;;;;1.43;0.63;;;9.30;1.00;;;;;;5110261;28;20205;-72
2022/02/14 09:15:58;;;;;;;1.90;0.90;;;9.50;1.00;;;;;;5109903;28;20640;-72
2022/02/14 09:18:26;;;;;;;2.23;0.70;;;9.60;1.00;;;;;;5105701;28;20209;-72
2022/02/14 09:20:53;;;;;;;2.40;1.13;;;9.70;1.00;;;;;;5107166;28;20824;-72
2022/02/14 09:23:21;;;;;;;2.53;1.10;;;9.70;1.00;;;;;;5103051;28;20672;-71
2022/02/14 09:25:48;;;;;;;0.73;0.67;;;9.90;1.00;;;;;;5106070;28;20241;-84
2022/02/14 09:28:15;;;;;;;4.97;1.00;;;10.00;1.00;;;;;;5091042;28;20289;-85
2022/02/14 09:30:43;;;;;;;4.20;1.60;;;10.30;1.00;;;;;;5088042;28;20214;-84
2022/02/14 09:33:10;;;;;;;2.50;0.90;;;10.60;1.00;;;;;;5080930;28;20206;-84
2022/02/14 09:35:38;;;;;;;3.87;1.40;;;11.70;1.00;;;;;;5103326;28;20254;-85
2022/02/14 09:38:06;;;;;;;0.87;0.63;;;12.90;1.00;;;;;;5105201;28;22188;-84
2022/02/14 09:40:34;;;;;;;6.13;1.30;;;12.80;1.00;;;;;;5090686;28;20712;-83
2022/02/14 09:43:02;;;;;;;3.00;1.00;;;12.90;1.00;;;;;;5102090;28;20209;-83
2022/02/14 09:45:30;;;;;;;2.40;0.82;;;13.00;1.00;;;;;;5095333;28;20209;-74
2022/02/14 09:48:00;;;;;;;3.70;1.23;;;13.00;1.00;;;;;;5092677;28;20209;-83
2022/02/14 09:50:28;;;;;;;4.05;0.90;;;12.90;1.00;;;;;;5099000;28;20204;-84
2022/02/14 09:52:57;;;;;;;2.60;0.95;;;13.10;1.00;;;;;;5108899;28;20680;-84
2022/02/14 09:55:24;;;;;;;5.07;0.93;;;13.80;1.00;;;;;;5091715;28;20205;-83
2022/02/14 09:57:52;;;;;;;1.98;1.23;;;13.60;1.00;;;;;;5095507;28;20262;-82
2022/02/14 10:00:19;;;;;;;1.75;0.90;;;14.70;1.00;;;;;;5101990;28;20887;-79
2022/02/14 10:02:46;;;;;;;1.65;1.02;;;16.00;1.00;;;;;;5103569;28;20261;-74
2022/02/14 10:05:18;;;;;;;2.03;0.95;;;17.70;1.00;;;;;;5107176;28;20206;-77
2022/02/14 10:07:46;;;;;;;2.42;1.23;;;18.60;1.00;;;;;;5110409;28;20205;-78
2022/02/14 10:10:17;;;;;;;7.55;1.65;;;18.30;1.00;;;;;;5110778;28;20261;-75
2022/02/14 10:12:47;;;;;;;3.10;1.45;;;18.80;1.00;;;;;;5092558;28;20219;-79
2022/02/14 10:15:15;;;;;;;4.03;1.92;;;20.00;1.00;;;;;;5090836;28;20267;-77
2022/02/14 10:17:44;;;;;;;3.30;1.63;;;20.80;1.00;;;;;;5090340;28;20240;-77
2022/02/14 10:20:15;;;;;;;4.63;1.45;;;21.70;1.00;;;;;;5090539;28;20202;-78
2022/02/14 10:22:56;;;;;;;3.78;1.20;;;20.80;1.00;;;;;;5090203;28;20713;-77
2022/02/14 10:25:36;;;;;;;6.75;2.05;;;21.20;1.00;;;;;;5090290;28;20578;-78
2022/02/14 10:28:14;;;;;;;4.20;1.77;;;21.40;1.00;;;;;;5095076;28;20636;-78
2022/02/14 10:31:00;;;;;;;5.47;1.88;;;22.00;1.00;;;;;;5108153;28;20257;-78
2022/02/14 10:33:49;;;;;;;3.83;1.38;;;22.80;1.00;;;;;;5104227;28;20581;-78
2022/02/14 10:36:25;;;;;;;3.90;1.17;;;22.10;1.00;;;;;;5104471;28;20278;-78
2022/02/14 10:38:52;;;;;;;2.92;1.35;;;20.40;1.00;;;;;;5092139;28;20278;-78
2022/02/14 10:41:20;;;;;;;6.53;1.70;;;17.90;1.00;;;;;;5102446;28;20228;-77
2022/02/14 10:43:47;;;;;;;2.17;1.20;;;14.50;1.00;;;;;;5093405;28;20209;-77
2022/02/14 10:46:22;;;;;;;2.25;0.90;;;13.50;1.00;;;;;;5112019;28;20204;-78
2022/02/14 10:48:58;;;;;;;3.50;1.42;;;13.00;1.00;;;;;;5113620;28;20212;-74
2022/02/14 10:51:25;;;;;;;2.88;1.50;;;12.80;1.00;;;;;;5114316;28;20200;-78
2022/02/14 10:53:54;;;;;;;3.85;1.73;;;12.80;1.00;;;;;;5113272;28;20278;-78
2022/02/14 10:56:24;;;;;;;3.92;1.80;;;12.80;1.00;;;;;;5096562;28;20567;-74
2022/02/14 10:59:06;;;;;;;15.98;3.35;;;12.70;1.00;;;;;;5108772;28;20240;-77
2022/02/14 11:01:33;;;;;;;2.85;1.10;;;12.70;1.00;;;;;;5106997;28;20309;-77
2022/02/14 11:04:00;;;;;;;2.25;1.40;;;12.50;1.00;;;;;;5113184;28;20250;-75
2022/02/14 11:06:28;;;;;;;4.63;0.90;;;12.50;1.00;;;;;;5111422;28;20209;-77
2022/02/14 11:08:56;;;;;;;11.23;2.92;;;12.70;1.00;;;;;;5111128;27;20209;-77
2022/02/14 11:11:27;;;;;;;5.53;1.27;;;12.80;1.00;;;;;;5090785;28;20266;-79
2022/02/14 11:13:56;;;;;;;4.95;1.58;;;13.00;1.00;;;;;;5094287;28;20673;-81
2022/02/14 11:16:23;;;;;;;7.88;2.13;;;13.30;1.00;;;;;;5093220;28;20205;-81
2022/02/14 11:18:52;;;;;;;2.70;1.52;;;13.50;1.00;;;;;;5092676;28;20738;-76
2022/02/14 11:21:19;;;;;;;7.72;1.13;;;13.50;1.00;;;;;;5093136;28;20229;-75
2022/02/14 11:23:52;;;;;;;3.83;1.20;;;14.10;1.00;;;;;;5092604;28;20259;-76
2022/02/14 11:26:29;;;;;;;4.25;1.40;;;13.70;1.00;;;;;;5092927;28;20798;-75
2022/02/14 11:29:14;;;;;;;3.03;0.65;;;13.50;1.00;;;;;;5093444;28;20205;-77
2022/02/14 11:31:41;;;;;;;2.85;0.95;;;13.40;1.00;;;;;;5092335;28;20262;-77
2022/02/14 11:34:08;;;;;;;1.30;1.00;;;13.50;1.00;;;;;;5093028;28;20726;-76
2022/02/14 11:36:38;;;;;;;6.07;1.10;;;13.40;1.00;;;;;;5092683;28;20205;-74
2022/02/14 11:39:06;;;;;;;7.20;1.08;;;13.60;1.00;;;;;;5092881;28;20198;-75
2022/02/14 11:41:36;;;;;;;1.90;0.85;;;13.00;1.00;;;;;;5091813;28;20649;-75
2022/02/14 11:44:25;;;;;;;3.33;1.55;;;12.60;1.00;;;;;;5092782;28;20280;-76
2022/02/14 11:47:13;;;;;;;4.57;1.65;;;12.50;1.00;;;;;;5091978;28;20209;-80
2022/02/14 11:49:42;;;;;;;1.77;0.90;;;12.90;1.00;;;;;;5092270;28;20210;-80
2022/02/14 11:52:29;;;;;;;3.08;1.02;;;13.20;1.00;;;;;;5092679;28;20213;-79
2022/02/14 11:54:56;;;;;;;3.88;0.70;;;14.00;1.00;;;;;;5091497;28;20744;-78
2022/02/14 11:57:31;;;;;;;2.90;1.00;;;13.70;1.00;;;;;;5092928;28;20297;-76
2022/02/14 12:00:27;;;;;;;1.48;0.80;;;13.30;1.00;;;;;;5092895;28;20211;-76
2022/02/14 12:03:16;;;;;;;4.97;0.60;;;13.10;1.00;;;;;;5092558;28;20237;-81
2022/02/14 12:05:49;;;;;;;1.98;0.70;;;12.60;1.00;;;;;;5082297;28;20242;-76
2022/02/14 12:08:18;;;;;;;3.30;1.13;;;12.90;1.00;;;;;;5091803;28;20214;-79
2022/02/14 12:10:47;;;;;;;2.97;1.08;;;13.00;1.00;;;;;;5089883;27;20269;-79
2022/02/14 12:13:20;;;;;;;1.90;0.52;;;12.80;1.00;;;;;;5094884;28;20205;-78
2022/02/14 12:21:48;;;;;;;1.90;1.20;;;13.20;1.00;;;;;;5094705;28;20240;-78
2022/02/14 12:24:21;;;;;;;5.88;1.60;;;12.70;1.00;;;;;;5090529;28;20216;-76
2022/02/14 12:26:54;;;;;;;2.72;0.85;;;12.90;1.00;;;;;;5091559;28;20637;-76
2022/02/14 12:29:39;;;;;;;3.95;0.85;;;12.90;1.00;;;;;;5091674;28;20206;-75
2022/02/14 12:32:14;;;;;;;4.10;1.98;;;12.50;1.00;;;;;;5088527;28;20212;-79
2022/02/14 12:34:41;;;;;;;2.22;1.92;;;12.70;1.00;;;;;;5085353;28;20209;-78
2022/02/14 12:37:10;;;;;;;4.78;2.65;;;13.00;1.00;;;;;;5085021;28;20676;-79
2022/02/14 12:39:40;;;;;;;3.80;1.73;;;13.40;1.00;;;;;;5106645;28;20266;-79
2022/02/14 12:42:25;;;;;;;2.55;1.02;;;13.30;1.00;;;;;;5106582;28;20224;-78
2022/02/14 12:44:55;;;;;;;1.83;1.02;;;12.90;1.00;;;;;;5110309;28;20206;-75
2022/02/14 12:47:25;;;;;;;1.83;0.80;;;12.60;1.00;;;;;;5111899;28;20205;-76
2022/02/14 12:50:07;;;;;;;1.55;0.80;;;12.80;1.00;;;;;;5097178;28;20206;-75
2022/02/14 12:52:35;;;;;;;2.35;0.60;;;13.00;1.00;;;;;;5110784;28;20217;-75
2022/02/14 12:55:03;;;;;;;1.15;0.60;;;12.80;1.00;;;;;;5108540;28;20208;-75
2022/02/14 12:57:34;;;;;;;1.63;0.80;;;12.50;1.00;;;;;;5110912;28;20209;-75
2022/02/14 13:00:04;;;;;;;2.17;0.80;;;12.20;1.00;;;;;;5108541;28;20668;-75
2022/02/14 13:02:31;;;;;;;4.30;1.00;;;11.80;1.00;;;;;;5092451;28;20310;-76
2022/02/14 13:04:58;;;;;;;1.83;1.10;;;11.70;1.00;;;;;;5100018;28;20274;-76
2022/02/14 13:07:27;;;;;;;2.70;0.93;;;11.60;1.00;;;;;;5102001;28;20201;-76
2022/02/14 13:10:03;;;;;;;1.65;0.70;;;11.70;1.00;;;;;;5107187;28;20292;-73
2022/02/14 13:12:30;;;;;;;0.77;0.50;;;11.90;1.00;;;;;;5110626;28;20672;-75